Time;durP1;ratioP1;P1;durP2;ratioP2;P2;SDS_P1;SDS_P2;PMS_P1;PMS_P2;Temp;Humidity;BMP_temperature;BMP_pressure;BME280_temperature;BME280_humidity;BME280_pressure;Samples;Min_cycle;Max_cycle;Signal;HPM_P1;HPM_P2
2022/09/11 00:01:28;;;;;;;2.63;1.63;;;13.70;99.90;;;;;;5055251;28;20488;-59
2022/09/11 00:03:55;;;;;;;1.70;1.55;;;13.70;99.90;;;;;;5058410;28;20025;-60
2022/09/11 00:06:22;;;;;;;5.38;1.95;;;13.70;99.90;;;;;;5058012;28;20742;-59
2022/09/11 00:08:52;;;;;;;3.35;1.90;;;13.70;99.90;;;;;;5055843;28;20035;-59
2022/09/11 00:11:20;;;;;;;1.58;1.48;;;13.70;99.90;;;;;;5060048;28;20033;-59
2022/09/11 00:13:48;;;;;;;4.03;2.05;;;13.70;99.90;;;;;;5062227;28;20029;-59
2022/09/11 00:16:25;;;;;;;2.30;2.10;;;13.70;99.90;;;;;;5062118;28;20025;-59
2022/09/11 00:18:52;;;;;;;3.53;2.40;;;13.70;99.90;;;;;;5062281;28;20028;-61
2022/09/11 00:21:19;;;;;;;5.68;1.85;;;13.70;99.90;;;;;;5063989;28;20021;-59
2022/09/11 00:23:47;;;;;;;3.58;1.95;;;13.70;99.90;;;;;;5061264;28;20104;-59
2022/09/11 00:26:13;;;;;;;2.10;1.83;;;13.70;99.90;;;;;;5046489;28;20373;-59
2022/09/11 00:28:39;;;;;;;2.00;1.80;;;13.70;99.90;;;;;;5059629;28;20033;-59
2022/09/11 00:31:11;;;;;;;5.30;2.10;;;13.80;99.90;;;;;;5063016;28;20380;-59
2022/09/11 00:33:38;;;;;;;4.50;2.00;;;13.70;99.90;;;;;;5064485;28;20471;-59
2022/09/11 00:36:07;;;;;;;3.15;2.20;;;13.70;99.90;;;;;;5044875;28;20477;-59
2022/09/11 00:38:35;;;;;;;3.05;2.78;;;13.70;99.90;;;;;;5063905;28;20040;-59
2022/09/11 00:41:04;;;;;;;3.78;2.67;;;13.80;99.90;;;;;;5059055;28;20020;-59
2022/09/11 00:43:49;;;;;;;2.92;2.72;;;13.80;99.90;;;;;;5061457;28;20111;-59
2022/09/11 00:46:15;;;;;;;4.57;3.17;;;13.80;99.90;;;;;;5062383;28;20034;-59
2022/09/11 00:48:42;;;;;;;5.43;2.55;;;13.80;99.90;;;;;;5058748;28;20032;-60
2022/09/11 00:51:09;;;;;;;3.13;2.63;;;13.80;99.90;;;;;;5060765;28;20408;-59
2022/09/11 00:53:36;;;;;;;3.00;2.47;;;13.80;99.90;;;;;;5060881;28;20139;-59
2022/09/11 00:56:07;;;;;;;7.18;3.13;;;13.80;99.90;;;;;;5064629;28;20396;-59
2022/09/11 00:58:37;;;;;;;2.90;2.70;;;13.90;99.90;;;;;;5063349;28;20370;-60
2022/09/11 01:01:02;;;;;;;3.92;2.70;;;13.90;99.90;;;;;;5056133;28;20259;-59
2022/09/11 01:03:30;;;;;;;2.97;2.67;;;13.90;99.90;;;;;;5060116;28;20028;-60
2022/09/11 01:05:57;;;;;;;2.40;2.20;;;13.80;99.90;;;;;;5062918;28;20095;-60
2022/09/11 01:08:23;;;;;;;2.88;2.67;;;13.80;99.90;;;;;;5059600;28;20032;-60
2022/09/11 01:11:15;;;;;;;3.67;2.60;;;13.80;99.90;;;;;;5066606;28;20040;-59
2022/09/11 01:13:59;;;;;;;3.50;3.17;;;13.90;99.90;;;;;;5060133;28;20528;-59
2022/09/11 01:16:34;;;;;;;3.85;2.70;;;13.90;99.90;;;;;;5058261;28;20440;-59
2022/09/11 01:19:24;;;;;;;3.15;2.75;;;13.90;99.90;;;;;;5058235;28;20024;-60
2022/09/11 01:22:06;;;;;;;3.65;3.30;;;13.90;99.90;;;;;;5066225;28;20025;-60
2022/09/11 01:24:40;;;;;;;2.67;2.47;;;13.90;99.90;;;;;;5058582;28;20021;-59
2022/09/11 01:27:43;;;;;;;2.72;2.47;;;13.90;99.90;;;;;;5062696;28;20115;-59
2022/09/11 01:30:12;;;;;;;3.17;2.88;;;13.90;99.90;;;;;;5058038;28;20496;-60
2022/09/11 01:33:00;;;;;;;4.03;2.92;;;13.80;99.90;;;;;;5063710;28;20426;-60
2022/09/11 01:35:30;;;;;;;2.90;2.70;;;13.90;99.90;;;;;;5061495;28;20028;-60
2022/09/11 01:38:02;;;;;;;3.72;3.15;;;13.90;99.90;;;;;;5042564;28;20025;-59
2022/09/11 01:40:44;;;;;;;4.00;3.67;;;13.90;99.90;;;;;;5059508;28;20087;-60
2022/09/11 01:43:17;;;;;;;3.38;2.80;;;14.00;99.90;;;;;;5058820;28;20054;-60
2022/09/11 01:45:45;;;;;;;3.60;3.30;;;14.00;99.90;;;;;;5063607;28;20495;-60
2022/09/11 01:48:16;;;;;;;4.80;3.72;;;14.00;99.90;;;;;;5055117;28;20037;-60
2022/09/11 01:50:46;;;;;;;5.80;4.13;;;14.10;99.90;;;;;;5077668;28;20450;-59
2022/09/11 01:53:15;;;;;;;4.15;3.85;;;14.10;99.90;;;;;;5068287;28;20027;-60
2022/09/11 01:55:48;;;;;;;5.95;4.78;;;14.10;99.90;;;;;;5061085;28;20028;-59
2022/09/11 01:58:23;;;;;;;4.18;3.88;;;14.10;99.90;;;;;;5061054;28;20032;-59
2022/09/11 02:00:54;;;;;;;3.95;3.65;;;14.10;99.90;;;;;;5060510;28;20029;-59
2022/09/11 02:03:30;;;;;;;3.38;3.10;;;14.10;99.90;;;;;;5061250;28;20020;-60
2022/09/11 02:06:00;;;;;;;6.07;3.30;;;14.10;99.90;;;;;;5059759;28;20036;-59
2022/09/11 02:08:42;;;;;;;5.55;3.20;;;14.10;99.90;;;;;;5057307;28;20581;-59
2022/09/11 02:11:11;;;;;;;3.55;3.08;;;14.00;99.90;;;;;;5059235;28;20082;-59
2022/09/11 02:14:03;;;;;;;12.23;3.13;;;14.00;99.90;;;;;;5056277;28;20025;-60
2022/09/11 02:16:41;;;;;;;4.22;3.85;;;13.90;99.90;;;;;;5056670;28;20125;-60
2022/09/11 02:19:28;;;;;;;3.20;2.90;;;13.90;99.90;;;;;;5062157;28;20040;-60
2022/09/11 02:21:56;;;;;;;3.53;3.22;;;13.90;99.90;;;;;;5057058;28;20028;-59
2022/09/11 02:24:21;;;;;;;4.53;3.78;;;13.90;99.90;;;;;;5065254;28;20697;-60
2022/09/11 02:26:52;;;;;;;4.38;3.97;;;13.90;99.90;;;;;;5057864;28;20025;-60
2022/09/11 02:29:19;;;;;;;3.83;3.53;;;13.90;99.90;;;;;;5062614;28;20066;-60
2022/09/11 02:31:46;;;;;;;3.75;3.35;;;14.00;99.90;;;;;;5060710;28;20028;-59
2022/09/11 02:34:13;;;;;;;5.30;3.65;;;14.00;99.90;;;;;;5057138;28;20029;-60
2022/09/11 02:36:59;;;;;;;3.42;3.13;;;14.00;99.90;;;;;;5046247;28;20025;-59
2022/09/11 02:39:57;;;;;;;3.95;3.65;;;14.00;99.90;;;;;;5033395;28;20028;-60
2022/09/11 02:42:26;;;;;;;4.15;3.75;;;14.10;99.90;;;;;;5081101;28;20102;-60
2022/09/11 02:45:08;;;;;;;4.50;3.50;;;14.10;99.90;;;;;;5079067;28;20033;-59
2022/09/11 02:47:40;;;;;;;4.25;3.75;;;14.10;99.90;;;;;;5083718;28;20028;-59
2022/09/11 02:50:12;;;;;;;438.38;20.70;;;14.10;99.90;;;;;;5079966;28;20107;-59
2022/09/11 02:53:09;;;;;;;41.00;5.40;;;14.00;99.90;;;;;;5080746;28;20100;-59
2022/09/11 02:56:03;;;;;;;16.30;5.05;;;13.90;99.90;;;;;;5081102;28;20067;-61
2022/09/11 02:58:35;;;;;;;5.07;4.30;;;13.90;99.90;;;;;;5077738;28;20037;-60
2022/09/11 03:01:01;;;;;;;8.25;4.13;;;13.80;99.90;;;;;;5078383;28;20029;-60
2022/09/11 03:03:28;;;;;;;7.95;5.25;;;13.80;99.90;;;;;;5083278;28;20026;-62
2022/09/11 03:05:54;;;;;;;10.52;5.85;;;13.80;99.90;;;;;;5078965;28;20028;-60
2022/09/11 03:08:20;;;;;;;6.55;4.10;;;13.80;99.90;;;;;;5080586;28;20040;-60
2022/09/11 03:10:48;;;;;;;5.40;4.22;;;13.80;99.90;;;;;;5077328;28;20105;-60
2022/09/11 03:13:15;;;;;;;7.00;4.75;;;13.80;99.90;;;;;;5080106;28;20495;-60
2022/09/11 03:15:42;;;;;;;5.43;4.82;;;13.80;99.90;;;;;;5081037;28;20133;-60
2022/09/11 03:18:09;;;;;;;5.03;4.57;;;13.80;99.90;;;;;;5077685;28;20107;-60
2022/09/11 03:20:35;;;;;;;5.53;5.03;;;13.80;99.90;;;;;;5080035;28;20029;-60
2022/09/11 03:23:00;;;;;;;6.72;5.50;;;13.90;99.90;;;;;;5074021;28;20120;-61
2022/09/11 03:25:27;;;;;;;6.10;5.35;;;13.90;99.90;;;;;;5081128;28;20502;-61
2022/09/11 03:27:53;;;;;;;5.05;4.28;;;13.90;99.90;;;;;;5072498;28;20032;-61
2022/09/11 03:30:20;;;;;;;6.55;4.78;;;13.90;99.90;;;;;;5080539;28;21364;-60
2022/09/11 03:32:48;;;;;;;5.90;4.60;;;14.00;99.90;;;;;;5080424;28;20089;-60
2022/09/11 03:35:15;;;;;;;6.97;6.28;;;14.00;99.90;;;;;;5076710;28;20021;-60
2022/09/11 03:37:40;;;;;;;6.70;6.05;;;14.00;99.90;;;;;;5076907;28;20020;-60
2022/09/11 03:40:07;;;;;;;5.57;5.07;;;14.00;99.90;;;;;;5075959;28;20473;-61
2022/09/11 03:42:32;;;;;;;5.80;5.20;;;14.00;99.90;;;;;;5083276;28;20489;-60
2022/09/11 03:44:58;;;;;;;10.73;6.03;;;14.10;99.90;;;;;;5080465;28;20111;-63
2022/09/11 03:47:24;;;;;;;6.30;5.78;;;14.10;99.90;;;;;;5084755;28;20391;-61
2022/09/11 03:49:49;;;;;;;6.53;5.93;;;14.10;99.90;;;;;;5085069;28;20376;-61
2022/09/11 03:52:15;;;;;;;7.47;6.75;;;14.10;99.90;;;;;;5082257;28;20024;-60
2022/09/11 03:54:41;;;;;;;7.55;6.75;;;14.10;99.90;;;;;;5085073;28;20483;-60
2022/09/11 03:57:06;;;;;;;10.25;7.53;;;14.10;99.90;;;;;;5080084;28;20036;-61
2022/09/11 03:59:32;;;;;;;8.30;7.50;;;14.10;99.90;;;;;;5082642;28;20047;-62
2022/09/11 04:01:58;;;;;;;11.60;7.97;;;14.10;99.90;;;;;;5083477;28;20017;-61
2022/09/11 04:04:23;;;;;;;9.48;8.57;;;14.10;99.90;;;;;;5081918;28;20033;-60
2022/09/11 04:06:49;;;;;;;9.23;8.43;;;14.10;99.90;;;;;;5082303;28;20016;-61
2022/09/11 04:09:16;;;;;;;9.30;8.25;;;14.10;99.90;;;;;;5081455;28;20490;-61
2022/09/11 04:11:41;;;;;;;10.50;8.52;;;14.10;99.90;;;;;;5080360;28;20105;-61
2022/09/11 04:14:07;;;;;;;10.13;9.23;;;14.10;99.90;;;;;;5083517;28;20020;-61
2022/09/11 04:16:34;;;;;;;9.80;8.80;;;14.10;99.90;;;;;;5084921;28;20120;-60
2022/09/11 04:19:00;;;;;;;11.75;10.80;;;14.10;99.90;;;;;;5079256;28;20044;-61
2022/09/11 04:21:27;;;;;;;10.52;9.63;;;14.10;99.90;;;;;;5083389;28;20511;-61
2022/09/11 04:23:54;;;;;;;10.52;9.68;;;14.10;99.90;;;;;;5082690;28;20468;-60
2022/09/11 04:26:22;;;;;;;10.82;9.77;;;14.10;99.90;;;;;;5077913;28;20024;-60
2022/09/11 04:28:48;;;;;;;9.93;8.95;;;14.10;99.90;;;;;;5080732;28;20035;-60
2022/09/11 04:31:15;;;;;;;12.48;11.57;;;14.10;99.90;;;;;;5080553;28;20406;-61
2022/09/11 04:33:41;;;;;;;13.35;12.00;;;14.10;99.90;;;;;;5078147;28;20035;-61
2022/09/11 04:36:10;;;;;;;13.32;11.95;;;14.10;99.90;;;;;;5065428;28;20033;-62
2022/09/11 04:38:36;;;;;;;12.48;11.35;;;14.10;99.90;;;;;;5079461;28;20381;-62
2022/09/11 04:41:04;;;;;;;11.80;10.70;;;14.10;99.90;;;;;;5077811;28;20028;-60
2022/09/11 04:43:30;;;;;;;13.45;12.13;;;14.10;99.90;;;;;;5077252;28;20028;-60
2022/09/11 04:46:10;;;;;;;12.32;11.15;;;14.10;99.90;;;;;;5081809;28;20050;-60
2022/09/11 04:48:37;;;;;;;11.48;10.57;;;14.10;99.90;;;;;;5082010;28;20039;-62
2022/09/11 04:51:07;;;;;;;14.13;12.63;;;14.10;99.90;;;;;;5080370;28;20150;-61
2022/09/11 04:53:35;;;;;;;14.60;13.30;;;14.00;99.90;;;;;;5081244;28;20024;-61
2022/09/11 04:56:13;;;;;;;13.60;12.38;;;14.00;99.90;;;;;;5083799;28;20518;-61
2022/09/11 04:58:40;;;;;;;13.85;12.52;;;14.00;99.90;;;;;;5084121;28;20035;-60
2022/09/11 05:01:08;;;;;;;13.25;12.10;;;14.00;99.90;;;;;;5081596;28;20028;-60
2022/09/11 05:03:34;;;;;;;13.30;12.20;;;14.00;99.90;;;;;;5081383;28;20040;-61
2022/09/11 05:06:07;;;;;;;13.55;12.48;;;14.10;99.90;;;;;;5084292;28;20129;-63
2022/09/11 05:08:33;;;;;;;13.80;12.43;;;14.10;99.90;;;;;;5081379;28;20032;-60
2022/09/11 05:11:05;;;;;;;13.98;12.85;;;14.10;99.90;;;;;;5081849;28;20437;-61
2022/09/11 05:13:32;;;;;;;14.15;12.52;;;14.20;99.90;;;;;;5080802;28;20024;-60
2022/09/11 05:16:02;;;;;;;13.20;12.15;;;14.40;99.90;;;;;;5081124;28;20027;-60
2022/09/11 05:18:28;;;;;;;11.48;10.57;;;14.40;99.90;;;;;;5081500;28;20431;-62
2022/09/11 05:21:02;;;;;;;11.10;10.18;;;14.60;99.90;;;;;;5083176;28;20028;-63
2022/09/11 05:23:28;;;;;;;9.48;8.77;;;14.70;99.90;;;;;;5077116;28;20503;-62
2022/09/11 05:25:58;;;;;;;10.63;9.75;;;14.70;99.90;;;;;;5078739;28;20525;-61
2022/09/11 05:28:25;;;;;;;9.38;8.68;;;14.70;99.90;;;;;;5083456;28;20043;-61
2022/09/11 05:30:52;;;;;;;9.75;9.00;;;14.70;99.90;;;;;;5080928;28;20055;-60
2022/09/11 05:33:18;;;;;;;11.68;9.63;;;14.70;99.90;;;;;;5080786;28;20136;-60
2022/09/11 05:35:43;;;;;;;10.18;9.27;;;14.70;99.90;;;;;;5078757;28;20522;-60
2022/09/11 05:38:12;;;;;;;10.27;9.05;;;14.70;99.90;;;;;;5078402;28;20024;-61
2022/09/11 05:40:48;;;;;;;9.35;8.57;;;14.70;99.90;;;;;;5080137;28;20020;-61
2022/09/11 05:43:18;;;;;;;10.07;9.30;;;14.70;99.90;;;;;;5076750;28;20028;-60
2022/09/11 05:45:44;;;;;;;8.33;7.73;;;14.70;99.90;;;;;;5081009;28;20032;-60
2022/09/11 05:48:11;;;;;;;9.43;8.68;;;14.70;99.90;;;;;;5075518;28;20028;-61
2022/09/11 05:50:37;;;;;;;9.85;9.05;;;14.70;99.90;;;;;;5084439;28;20036;-62
2022/09/11 05:53:04;;;;;;;10.23;9.43;;;14.70;99.90;;;;;;5069690;28;20453;-61
2022/09/11 05:55:34;;;;;;;9.70;8.90;;;14.70;99.90;;;;;;5077101;28;20071;-60
2022/09/11 05:58:00;;;;;;;10.02;9.15;;;14.70;99.90;;;;;;5082475;28;20028;-61
2022/09/11 06:00:26;;;;;;;9.68;8.85;;;14.70;99.90;;;;;;5082500;28;20459;-61
2022/09/11 06:02:55;;;;;;;9.15;8.35;;;14.70;99.90;;;;;;5080202;28;20037;-60
2022/09/11 06:05:20;;;;;;;9.35;8.20;;;14.70;99.90;;;;;;5079749;28;20029;-61
2022/09/11 06:07:46;;;;;;;8.48;7.78;;;14.70;99.90;;;;;;5069835;28;20040;-60
2022/09/11 06:10:12;;;;;;;8.80;8.10;;;14.80;99.90;;;;;;5078581;28;20502;-60
2022/09/11 06:12:37;;;;;;;10.70;9.63;;;14.80;99.90;;;;;;5079389;28;20016;-61
2022/09/11 06:15:03;;;;;;;9.45;8.65;;;14.80;99.90;;;;;;5080168;28;20038;-61
2022/09/11 06:17:29;;;;;;;9.40;8.65;;;14.80;99.90;;;;;;5076104;28;20092;-61
2022/09/11 06:19:55;;;;;;;9.55;8.75;;;14.90;99.90;;;;;;5080314;28;20115;-60
2022/09/11 06:22:20;;;;;;;10.30;8.40;;;14.90;99.90;;;;;;5077395;28;20032;-60
2022/09/11 06:24:48;;;;;;;8.80;8.00;;;14.90;99.90;;;;;;5079659;28;20395;-61
2022/09/11 06:27:14;;;;;;;8.75;8.07;;;14.90;99.90;;;;;;5077933;28;20068;-61
2022/09/11 06:29:40;;;;;;;9.23;8.43;;;15.00;99.90;;;;;;5079741;28;20059;-62
2022/09/11 06:32:06;;;;;;;8.95;8.25;;;15.00;99.90;;;;;;5076357;28;20032;-60
2022/09/11 06:34:32;;;;;;;8.77;8.07;;;15.00;99.90;;;;;;5079166;28;20043;-61
2022/09/11 06:36:58;;;;;;;7.88;7.28;;;15.00;99.90;;;;;;5077195;28;20032;-62
2022/09/11 06:39:23;;;;;;;8.45;7.80;;;15.10;99.90;;;;;;5081210;28;20062;-61
2022/09/11 06:41:49;;;;;;;9.00;8.30;;;15.10;99.90;;;;;;5080072;28;20415;-60
2022/09/11 06:44:15;;;;;;;7.43;6.82;;;15.20;99.90;;;;;;5078359;28;20032;-61
2022/09/11 06:46:41;;;;;;;7.43;6.82;;;15.20;99.90;;;;;;5081646;28;20039;-61
2022/09/11 06:49:06;;;;;;;6.65;6.15;;;15.30;99.90;;;;;;5073953;28;20027;-61
2022/09/11 06:51:33;;;;;;;7.40;6.70;;;15.30;99.90;;;;;;5080328;28;20038;-62
2022/09/11 06:54:01;;;;;;;8.15;7.55;;;15.40;99.90;;;;;;5078919;28;20024;-61
2022/09/11 06:56:28;;;;;;;6.60;6.07;;;15.50;99.90;;;;;;5077513;28;20396;-60
2022/09/11 06:58:54;;;;;;;8.40;6.80;;;15.60;99.90;;;;;;5080627;28;20033;-60
2022/09/11 07:01:21;;;;;;;6.57;5.88;;;15.70;99.90;;;;;;5081502;28;20025;-60
2022/09/11 07:03:49;;;;;;;6.43;5.82;;;15.80;99.90;;;;;;5076275;28;20127;-63
2022/09/11 07:06:17;;;;;;;6.95;6.30;;;15.80;99.90;;;;;;5080937;28;20020;-61
2022/09/11 07:08:43;;;;;;;6.85;6.38;;;15.90;99.90;;;;;;5078242;28;20118;-62
2022/09/11 07:11:11;;;;;;;6.60;6.00;;;15.90;99.90;;;;;;5079153;28;20112;-63
2022/09/11 07:13:38;;;;;;;6.47;5.88;;;16.00;99.90;;;;;;5077287;28;20479;-61
2022/09/11 07:16:06;;;;;;;12.73;6.40;;;16.00;99.90;;;;;;5075976;28;20021;-60
2022/09/11 07:18:37;;;;;;;5.43;5.03;;;16.10;99.90;;;;;;5076643;28;20021;-62
2022/09/11 07:21:05;;;;;;;5.82;5.43;;;16.20;99.90;;;;;;5078585;28;20081;-61
2022/09/11 07:23:33;;;;;;;5.55;5.15;;;16.30;99.90;;;;;;5077001;28;20086;-63
2022/09/11 07:26:02;;;;;;;4.30;4.00;;;16.40;99.90;;;;;;5079194;28;20487;-61
2022/09/11 07:28:28;;;;;;;4.68;4.25;;;16.40;99.90;;;;;;5079752;28;20111;-60
2022/09/11 07:30:54;;;;;;;5.05;4.65;;;16.60;99.90;;;;;;5077379;28;20467;-62
2022/09/11 07:33:20;;;;;;;5.03;4.63;;;16.60;99.90;;;;;;5078525;28;20082;-60
2022/09/11 07:35:46;;;;;;;4.93;4.63;;;16.70;99.90;;;;;;5078235;28;20032;-61
2022/09/11 07:38:12;;;;;;;4.93;4.53;;;16.80;99.90;;;;;;5082388;28;20032;-60
2022/09/11 07:40:38;;;;;;;4.65;4.35;;;16.80;99.90;;;;;;5078322;28;20048;-61
2022/09/11 07:43:04;;;;;;;3.75;3.55;;;16.90;99.90;;;;;;5076212;28;20024;-61
2022/09/11 07:45:30;;;;;;;3.83;3.53;;;17.10;99.90;;;;;;5075102;28;20483;-61
2022/09/11 07:47:58;;;;;;;3.30;3.10;;;17.20;99.90;;;;;;5075290;28;20036;-61
2022/09/11 07:50:24;;;;;;;4.13;3.70;;;17.20;99.90;;;;;;5076424;28;20530;-61
2022/09/11 07:52:49;;;;;;;3.75;3.55;;;17.20;99.90;;;;;;5073869;28;20104;-61
2022/09/11 07:55:15;;;;;;;3.17;2.97;;;17.20;99.90;;;;;;5082565;28;20029;-61
2022/09/11 07:57:44;;;;;;;2.72;2.53;;;17.30;99.90;;;;;;5073295;28;20036;-60
2022/09/11 08:00:10;;;;;;;5.03;3.17;;;17.50;99.90;;;;;;5081337;28;20035;-63
2022/09/11 08:02:37;;;;;;;2.90;2.70;;;17.60;99.90;;;;;;5079506;28;20491;-61
2022/09/11 08:05:03;;;;;;;2.47;2.30;;;17.80;99.90;;;;;;5077077;28;20024;-60
2022/09/11 08:07:31;;;;;;;3.00;2.80;;;18.00;99.90;;;;;;5079992;28;20134;-61
2022/09/11 08:09:57;;;;;;;2.42;2.22;;;18.30;99.90;;;;;;5075171;28;20023;-60
2022/09/11 08:12:23;;;;;;;2.53;2.33;;;18.30;99.90;;;;;;5084124;28;20020;-60
2022/09/11 08:14:48;;;;;;;2.45;2.25;;;18.40;99.90;;;;;;5079598;28;20483;-60
2022/09/11 08:17:14;;;;;;;2.50;2.30;;;18.50;99.90;;;;;;5079512;28;20069;-61
2022/09/11 08:19:40;;;;;;;2.60;1.92;;;18.60;99.90;;;;;;5066687;28;20032;-61
2022/09/11 08:22:07;;;;;;;7.55;2.03;;;18.70;99.90;;;;;;5080567;28;20033;-61
2022/09/11 08:24:33;;;;;;;2.60;1.77;;;18.80;99.90;;;;;;5077343;28;20020;-61
2022/09/11 08:26:59;;;;;;;2.15;1.80;;;19.00;99.90;;;;;;5078092;28;20036;-61
2022/09/11 08:29:25;;;;;;;2.25;1.60;;;19.00;99.90;;;;;;5081117;28;20037;-61
2022/09/11 08:31:50;;;;;;;1.60;1.50;;;19.10;99.90;;;;;;5079568;28;20085;-62
2022/09/11 08:34:16;;;;;;;3.65;1.58;;;19.30;99.90;;;;;;5081942;28;20508;-60
2022/09/11 08:36:42;;;;;;;1.73;1.50;;;19.60;99.90;;;;;;5081750;28;20430;-61
2022/09/11 08:39:08;;;;;;;2.45;1.50;;;19.80;99.90;;;;;;5082833;28;20047;-61
2022/09/11 08:41:48;;;;;;;1.40;1.30;;;19.80;99.90;;;;;;5082205;28;20040;-61
2022/09/11 08:44:32;;;;;;;2.30;2.05;;;19.80;99.90;;;;;;5079603;28;20033;-61
2022/09/11 08:47:06;;;;;;;4.65;1.83;;;19.70;99.90;;;;;;5077369;28;20025;-61
2022/09/11 08:49:32;;;;;;;1.80;1.70;;;19.60;99.90;;;;;;5080603;28;20595;-62
2022/09/11 08:52:01;;;;;;;2.08;1.77;;;19.60;99.90;;;;;;5084714;28;20395;-61
2022/09/11 08:54:31;;;;;;;4.22;1.70;;;19.60;99.90;;;;;;5081533;28;20025;-61
2022/09/11 08:57:15;;;;;;;1.60;1.50;;;19.40;99.90;;;;;;5079677;28;20391;-62
2022/09/11 08:59:58;;;;;;;1.50;1.40;;;19.40;99.90;;;;;;5080316;28;20120;-62
2022/09/11 09:02:40;;;;;;;1.60;1.50;;;19.50;99.90;;;;;;5079857;28;20032;-61
2022/09/11 09:05:31;;;;;;;1.70;1.40;;;19.60;99.90;;;;;;5080373;28;20070;-62
2022/09/11 09:08:42;;;;;;;1.73;1.60;;;19.50;99.90;;;;;;5079227;28;20164;-61
2022/09/11 09:11:23;;;;;;;;;;;19.40;99.90;;;;;;5078770;28;20453;-61
2022/09/11 09:13:56;;;;;;;3.17;1.83;;;19.20;99.90;;;;;;5079647;28;20604;-62
2022/09/11 09:16:41;;;;;;;1.90;1.80;;;19.10;99.90;;;;;;5082605;28;20033;-60
2022/09/11 09:19:13;;;;;;;2.65;2.30;;;18.90;99.90;;;;;;5082024;28;20021;-61
2022/09/11 09:21:44;;;;;;;2.60;2.38;;;18.60;99.90;;;;;;5079440;28;20048;-60
2022/09/11 09:24:19;;;;;;;2.25;2.05;;;18.50;99.90;;;;;;5080528;28;20028;-61
2022/09/11 09:26:53;;;;;;;1.90;1.80;;;18.40;99.90;;;;;;5078213;28;20035;-62
2022/09/11 09:29:31;;;;;;;1.92;1.73;;;18.40;99.90;;;;;;5083943;28;20392;-61
2022/09/11 09:32:03;;;;;;;1.95;1.85;;;18.40;99.90;;;;;;5078771;28;20107;-61
2022/09/11 09:34:34;;;;;;;3.58;2.80;;;18.30;99.90;;;;;;5080957;28;20434;-61
2022/09/11 09:37:26;;;;;;;2.20;2.10;;;18.30;99.90;;;;;;5080911;28;20392;-61
2022/09/11 09:39:52;;;;;;;2.50;2.30;;;18.30;99.90;;;;;;5078535;28;20036;-61
2022/09/11 09:42:39;;;;;;;2.65;2.45;;;18.30;99.90;;;;;;5081031;28;20033;-63
2022/09/11 09:45:36;;;;;;;3.38;3.08;;;18.40;99.90;;;;;;5076026;28;20119;-61
2022/09/11 09:48:03;;;;;;;3.10;2.80;;;18.40;99.90;;;;;;5079509;28;20037;-61
2022/09/11 09:50:32;;;;;;;4.57;3.45;;;18.60;99.90;;;;;;5078353;28;20024;-61
2022/09/11 09:53:19;;;;;;;3.65;2.80;;;18.80;99.90;;;;;;5079416;28;20491;-61
2022/09/11 09:55:46;;;;;;;5.13;3.03;;;18.80;99.90;;;;;;5083995;28;20425;-61
2022/09/11 09:58:13;;;;;;;5.78;2.92;;;19.00;99.90;;;;;;5079112;28;20510;-60
2022/09/11 10:00:40;;;;;;;3.88;3.05;;;19.20;99.90;;;;;;5082273;28;20053;-60
2022/09/11 10:03:23;;;;;;;3.63;3.30;;;19.30;99.90;;;;;;5077370;28;20032;-60
2022/09/11 10:05:52;;;;;;;4.05;3.40;;;19.50;99.90;;;;;;5080985;28;20040;-60
2022/09/11 10:08:34;;;;;;;3.88;3.58;;;19.60;99.90;;;;;;5077902;28;20024;-60
2022/09/11 10:11:04;;;;;;;4.07;3.78;;;19.60;99.90;;;;;;5079539;28;20025;-62
2022/09/11 10:13:33;;;;;;;3.80;3.50;;;19.60;99.90;;;;;;5079906;28;20024;-61
2022/09/11 10:16:02;;;;;;;3.92;3.63;;;19.90;99.90;;;;;;5067573;28;20263;-62
2022/09/11 10:18:31;;;;;;;3.95;3.53;;;20.10;99.90;;;;;;5080547;28;20123;-61
2022/09/11 10:21:13;;;;;;;3.55;3.30;;;20.20;99.90;;;;;;5079002;28;20028;-61
2022/09/11 10:24:18;;;;;;;3.63;3.38;;;20.40;99.90;;;;;;5082176;28;20059;-62
2022/09/11 10:26:49;;;;;;;4.80;4.38;;;20.50;99.90;;;;;;5080603;28;20071;-63
2022/09/11 10:29:25;;;;;;;5.32;4.32;;;20.70;99.90;;;;;;5080399;28;20033;-60
2022/09/11 10:31:56;;;;;;;3.83;3.53;;;21.10;99.90;;;;;;5078237;28;20119;-61
2022/09/11 10:34:26;;;;;;;3.88;3.55;;;22.00;99.90;;;;;;5077263;28;20460;-61
2022/09/11 10:37:00;;;;;;;3.67;3.38;;;22.20;99.90;;;;;;5082381;28;20028;-61
2022/09/11 10:39:28;;;;;;;3.45;3.15;;;22.50;99.90;;;;;;5080658;28;20479;-61
2022/09/11 10:41:58;;;;;;;3.83;3.53;;;22.70;99.90;;;;;;5080307;28;20031;-62
2022/09/11 10:44:26;;;;;;;3.67;3.33;;;23.00;99.90;;;;;;5078790;28;20028;-61
2022/09/11 10:47:20;;;;;;;4.00;3.60;;;23.10;99.90;;;;;;5077808;28;20075;-62
2022/09/11 10:49:47;;;;;;;2.97;2.78;;;23.10;99.90;;;;;;5078780;28;20029;-61
2022/09/11 10:52:12;;;;;;;3.45;3.25;;;23.20;99.90;;;;;;5080206;28;20111;-61
2022/09/11 10:55:07;;;;;;;3.75;3.45;;;23.40;99.90;;;;;;5081917;28;20104;-61
2022/09/11 10:57:42;;;;;;;4.00;3.70;;;23.50;99.90;;;;;;5076260;28;20441;-61
2022/09/11 11:00:21;;;;;;;4.25;3.90;;;23.50;99.90;;;;;;5076680;28;20033;-61
2022/09/11 11:02:59;;;;;;;3.92;3.63;;;23.50;99.90;;;;;;5078651;28;20056;-61
2022/09/11 11:06:02;;;;;;;4.03;3.67;;;23.30;99.90;;;;;;5079730;28;20523;-61
2022/09/11 11:08:47;;;;;;;4.18;3.80;;;23.00;99.90;;;;;;5079940;28;20188;-61
2022/09/11 11:11:36;;;;;;;3.95;3.65;;;22.60;99.90;;;;;;5077204;28;20032;-61
2022/09/11 11:14:12;;;;;;;4.07;3.78;;;22.40;99.90;;;;;;5069092;28;20035;-62
2022/09/11 11:16:41;;;;;;;4.03;3.72;;;22.20;99.90;;;;;;5078425;28;20116;-60
2022/09/11 11:19:31;;;;;;;4.00;3.80;;;22.20;99.90;;;;;;5077813;28;20020;-61
2022/09/11 11:22:11;;;;;;;4.43;4.13;;;22.10;99.90;;;;;;5078462;28;20013;-61
2022/09/11 11:25:14;;;;;;;4.10;3.47;;;22.10;99.90;;;;;;5075739;28;20032;-61
2022/09/11 11:27:52;;;;;;;3.95;3.58;;;22.10;99.90;;;;;;5076159;28;20049;-61
2022/09/11 11:30:20;;;;;;;6.03;3.78;;;22.10;99.90;;;;;;5052272;28;20065;-61
2022/09/11 11:33:01;;;;;;;4.05;3.75;;;22.00;99.90;;;;;;5078622;28;20028;-61
2022/09/11 11:35:35;;;;;;;4.38;3.97;;;22.00;99.90;;;;;;5074918;28;20120;-61
2022/09/11 11:38:45;;;;;;;3.75;3.55;;;21.80;99.90;;;;;;5078961;28;20484;-61
2022/09/11 11:41:26;;;;;;;4.70;4.30;;;21.50;99.90;;;;;;5036653;28;20036;-61
2022/09/11 11:43:54;;;;;;;4.22;3.83;;;21.10;99.90;;;;;;5079534;28;20036;-61
2022/09/11 11:46:32;;;;;;;4.35;3.95;;;21.10;99.90;;;;;;5078746;28;20111;-61
2022/09/11 11:49:04;;;;;;;6.78;3.80;;;21.00;99.90;;;;;;5076228;28;20502;-60
2022/09/11 11:52:12;;;;;;;4.55;4.25;;;21.00;99.90;;;;;;5072086;28;20048;-61
2022/09/11 11:54:57;;;;;;;4.75;4.28;;;21.10;99.90;;;;;;5066710;28;20024;-61
2022/09/11 11:57:28;;;;;;;5.20;4.82;;;21.20;99.90;;;;;;5079821;28;20044;-62
2022/09/11 12:00:10;;;;;;;4.70;4.40;;;21.50;99.90;;;;;;5075432;28;20093;-61
2022/09/11 12:02:42;;;;;;;5.82;3.60;;;21.90;99.90;;;;;;5083576;28;20399;-61
2022/09/11 12:05:23;;;;;;;4.93;3.92;;;22.10;99.90;;;;;;5082642;28;20013;-61
2022/09/11 12:07:49;;;;;;;3.55;3.35;;;22.20;99.90;;;;;;5083823;28;20031;-63
2022/09/11 12:10:32;;;;;;;3.55;3.25;;;22.20;99.90;;;;;;5081173;28;20437;-61
2022/09/11 12:13:04;;;;;;;3.67;3.28;;;22.40;99.90;;;;;;5084351;28;20025;-61
2022/09/11 12:15:33;;;;;;;3.75;2.70;;;22.40;99.90;;;;;;5062047;28;20064;-61
2022/09/11 12:18:05;;;;;;;2.75;2.53;;;22.50;99.90;;;;;;5079413;28;20034;-62
2022/09/11 12:20:31;;;;;;;5.20;2.67;;;22.40;99.90;;;;;;5065002;28;20075;-62
2022/09/11 12:22:57;;;;;;;2.85;2.63;;;22.60;99.90;;;;;;5061593;28;20384;-61
2022/09/11 12:25:29;;;;;;;2.80;2.60;;;23.00;99.90;;;;;;5061146;28;20033;-61
2022/09/11 12:28:09;;;;;;;2.65;2.45;;;23.70;99.90;;;;;;5059672;28;20025;-64
2022/09/11 12:30:57;;;;;;;2.70;2.40;;;24.30;99.90;;;;;;5036442;28;20056;-61
2022/09/11 12:33:40;;;;;;;2.20;2.10;;;24.60;99.90;;;;;;5082210;28;20044;-61
2022/09/11 12:36:24;;;;;;;2.70;2.50;;;24.40;99.90;;;;;;5080476;28;20049;-61
2022/09/11 12:39:16;;;;;;;2.50;2.30;;;23.90;99.90;;;;;;5077320;28;20032;-61
2022/09/11 12:41:42;;;;;;;3.13;2.83;;;23.40;99.90;;;;;;5069236;28;20491;-61
2022/09/11 12:44:29;;;;;;;2.90;2.70;;;23.00;99.90;;;;;;5083155;28;20024;-61
2022/09/11 12:46:58;;;;;;;2.60;2.40;;;22.60;99.90;;;;;;5080345;28;20020;-61
2022/09/11 12:49:26;;;;;;;3.22;2.90;;;22.40;99.90;;;;;;5083841;28;20282;-61
2022/09/11 12:51:58;;;;;;;2.75;2.55;;;22.20;99.90;;;;;;5084272;28;20028;-60
2022/09/11 12:54:26;;;;;;;2.72;2.20;;;22.10;99.90;;;;;;5083928;28;20483;-61
2022/09/11 12:57:08;;;;;;;2.65;2.10;;;21.80;99.90;;;;;;5084025;28;20028;-60
2022/09/11 12:59:45;;;;;;;2.72;1.98;;;21.80;99.90;;;;;;5084552;28;20051;-61
2022/09/11 13:02:36;;;;;;;2.95;1.90;;;22.10;99.90;;;;;;5085890;28;20047;-63
2022/09/11 13:05:16;;;;;;;3.08;1.92;;;22.80;99.90;;;;;;5078062;28;20040;-62
2022/09/11 13:07:45;;;;;;;1.60;1.50;;;23.40;99.90;;;;;;5085085;28;20024;-61
2022/09/11 13:10:36;;;;;;;1.58;1.30;;;24.00;99.90;;;;;;5081805;28;20487;-61